Atlantic, Pennsylvania
Current Conditions -  °F | °C
As of 5:11 AM on Thursday 23 Oct 2014 (Local Time) from KGKJ Reporting Station
Broken Clouds Broken Clouds  
Wind Chill: 41°   Ceiling: 1400
Heat Index: 45°   Visibility: 10mi
Dew Point: 41°   Wind: 8mph
Humidity: 86%   Direction: 350°N
Pressure: 30.14"   Gusts: NA
Location:  41.5°N, 80.33°W
Report Text: KGKJ 230911Z AUTO 35007KT 10SM BKN014 07/05 A3014 RMK AO2 T00720050 TSNO
Loading
Personal Weather Stations






























Interactive Weather Map
Tropical Storm Tracking
New forecast layout! Learn more

10-Day Weather Forecast

Advertisements
Track Severe Weather on mobile